Terminal Aerodrome Forecast
Issued by NWS Duluth, MN

Home | Current Version | Previous Version | Text Only | Print | Product List | Glossary On
Versions: 1 2 3 4 5 6 7 8 9 10 11 12 13 14 15 16 17 18 19 20 21 22 23
000
FTUS43 KDLH 030525
TAFDLH
TAF
KDLH 030525Z 0306/0406 31008KT P6SM SCT070
     FM031300 32011KT P6SM SCT035 BKN060
     FM031600 33014G19KT P6SM BKN040 BKN060
     FM032100 32013G18KT P6SM VCSH BKN035 BKN070
     FM040100 30006KT P6SM SCT035 SCT090=

USA.gov is the U.S. government's official web portal to all federal, state and local government web resources and services.